Twizzle — 2DKS5 — position and weather

sailwx.info

Track history (hours):
 
Tides and Currents Weather Stations Pressure Air Temp Water Temp Dewpoint Dewpoint Depression Visibility Wind Speed Wind Dir Waves Ship Positions

Twizzle

Last reported at 2014-Oct-01 23:33 UTC. Time now 2014-Oct-02 00:22 UTC.
Position N 39°34' E 002°38'.

Length 58 m; draft 3.8 m.

Type: Sailing vessel. MMSI: 235079813.

Date/timePositionNaut miles runAvg speedWind from/ knotsBaromVisibWave heightAir tempDewpointWater temp
2014-Oct-01 23:33N 39°34' E 002°38'0 0.0
2014-Oct-01 22:33N 39°34' E 002°38'0 0.0
2014-Oct-01 21:33N 39°34' E 002°38'0 0.0
2014-Oct-01 20:33N 39°34' E 002°38'0 0.0
2014-Oct-01 19:33N 39°34' E 002°38'0 0.0
2014-Oct-01 18:33N 39°34' E 002°38'0 0.0
2014-Oct-01 17:33N 39°34' E 002°38'0 0.0
2014-Oct-01 16:33N 39°34' E 002°38'0 0.0
2014-Oct-01 15:33N 39°34' E 002°38'0 0.0
2014-Oct-01 14:33N 39°34' E 002°38'0 0.0
2014-Oct-01 13:30N 39°34' E 002°38'0 0.0
2014-Oct-01 12:33N 39°34' E 002°38'0 0.0
2014-Oct-01 11:33N 39°34' E 002°38'0 0.0
2014-Oct-01 10:33N 39°34' E 002°38'0 0.0
2014-Oct-01 09:33N 39°34' E 002°38'0 0.0
2014-Oct-01 08:33N 39°34' E 002°38'0 0.0
2014-Oct-01 07:33N 39°34' E 002°38'0 0.0
2014-Oct-01 06:33N 39°34' E 002°38'0 0.0
2014-Oct-01 05:33N 39°34' E 002°38'0 0.0
2014-Oct-01 04:33N 39°34' E 002°38'0 0.0
2014-Oct-01 03:33N 39°34' E 002°38'0 0.0
2014-Oct-01 02:33N 39°34' E 002°38'0 0.0
2014-Oct-01 01:33N 39°34' E 002°38'0 0.0
2014-Oct-01 00:33N 39°34' E 002°38'0 0.0
2014-Sep-30 23:33N 39°34' E 002°38'0 0.0
2014-Sep-30 22:33N 39°34' E 002°38'0 0.0
2014-Sep-30 21:33N 39°34' E 002°38'0 0.0
2014-Sep-30 20:33N 39°34' E 002°38'0 0.0
2014-Sep-30 19:33N 39°34' E 002°38'0 0.0
2014-Sep-30 18:33N 39°34' E 002°38'0 0.0
2014-Sep-30 17:33N 39°34' E 002°38'5 4.8
2014-Sep-30 16:33N 39°29' E 002°35'9 9.1
2014-Sep-30 15:33N 39°30' E 002°23'9 8.8
2014-Sep-30 14:33N 39°38' E 002°21'9 8.7
2014-Sep-30 13:33N 39°44' E 002°30'8 8.5
2014-Sep-30 12:33N 39°51' E 002°35'1111.3
2014-Sep-30 11:33N 39°60' E 002°45'1111.0
2014-Sep-30 10:33N 40°08' E 002°55'1111.4
2014-Sep-30 09:33N 40°17' E 003°05'1211.8
2014-Sep-30 08:33N 40°25' E 003°15'1212.1
2014-Sep-30 07:32N 40°34' E 003°26'1212.0
2014-Sep-30 06:33N 40°43' E 003°36'1512.4
2014-Sep-30 05:21N 40°54' E 003°49'12811.7
2014-Sep-29 18:26N 42°30' E 005°43'1011.0
2014-Sep-29 17:30N 42°38' E 005°52'1111.6
2014-Sep-29 16:33N 42°46' E 006°02'1211.8
2014-Sep-29 15:33N 42°55' E 006°13'1211.8
2014-Sep-29 14:31N 43°02' E 006°25'9 9.2
2014-Sep-29 13:33N 43°06' E 006°37'1211.9
2014-Sep-29 12:33N 43°11' E 006°51'1312.6
2014-Sep-29 11:32N 43°21' E 007°02'1312.9
2014-Sep-29 10:33N 43°31' E 007°13'1312.6
2014-Sep-29 09:33N 43°41' E 007°23'  
2014-Sep-23 12:30N 43°45' E 007°28'25 1.6
2014-Sep-22 20:22N 43°53' E 008°01'0 0.0
2014-Sep-22 18:31N 43°53' E 008°01'0 0.0
2014-Sep-22 17:22N 43°53' E 008°01'0 0.0
2014-Sep-22 16:31N 43°53' E 008°01'0 0.0
2014-Sep-22 15:31N 43°53' E 008°01'0 0.0
2014-Sep-22 12:31N 43°53' E 008°01'  
Track history (hours):
 
Tides and Currents Weather Stations Pressure Air Temp Water Temp Dewpoint Dewpoint Depression Visibility Wind Speed Wind Dir Waves Ship Positions

Twizzle

Last reported at 2014-Oct-01 23:33 UTC. Time now 2014-Oct-02 00:22 UTC.
Position N 39°34' E 002°38'.

Length 58 m; draft 3.8 m.

Type: Sailing vessel. MMSI: 235079813.

Date/timePositionNaut miles runAvg speedWind from/ knotsBaromVisibWave heightAir tempDewpointWater temp
2014-Oct-01 23:33N 39°34' E 002°38'0 0.0
2014-Oct-01 22:33N 39°34' E 002°38'0 0.0
2014-Oct-01 21:33N 39°34' E 002°38'0 0.0
2014-Oct-01 20:33N 39°34' E 002°38'0 0.0
2014-Oct-01 19:33N 39°34' E 002°38'0 0.0
2014-Oct-01 18:33N 39°34' E 002°38'0 0.0
2014-Oct-01 17:33N 39°34' E 002°38'0 0.0
2014-Oct-01 16:33N 39°34' E 002°38'0 0.0
2014-Oct-01 15:33N 39°34' E 002°38'0 0.0
2014-Oct-01 14:33N 39°34' E 002°38'0 0.0
2014-Oct-01 13:30N 39°34' E 002°38'0 0.0
2014-Oct-01 12:33N 39°34' E 002°38'0 0.0
2014-Oct-01 11:33N 39°34' E 002°38'0 0.0
2014-Oct-01 10:33N 39°34' E 002°38'0 0.0
2014-Oct-01 09:33N 39°34' E 002°38'0 0.0
2014-Oct-01 08:33N 39°34' E 002°38'0 0.0
2014-Oct-01 07:33N 39°34' E 002°38'0 0.0
2014-Oct-01 06:33N 39°34' E 002°38'0 0.0
2014-Oct-01 05:33N 39°34' E 002°38'0 0.0
2014-Oct-01 04:33N 39°34' E 002°38'0 0.0
2014-Oct-01 03:33N 39°34' E 002°38'0 0.0
2014-Oct-01 02:33N 39°34' E 002°38'0 0.0
2014-Oct-01 01:33N 39°34' E 002°38'0 0.0
2014-Oct-01 00:33N 39°34' E 002°38'0 0.0
2014-Sep-30 23:33N 39°34' E 002°38'0 0.0
2014-Sep-30 22:33N 39°34' E 002°38'0 0.0
2014-Sep-30 21:33N 39°34' E 002°38'0 0.0
2014-Sep-30 20:33N 39°34' E 002°38'0 0.0
2014-Sep-30 19:33N 39°34' E 002°38'0 0.0
2014-Sep-30 18:33N 39°34' E 002°38'0 0.0
2014-Sep-30 17:33N 39°34' E 002°38'5 4.8
2014-Sep-30 16:33N 39°29' E 002°35'9 9.1
2014-Sep-30 15:33N 39°30' E 002°23'9 8.8
2014-Sep-30 14:33N 39°38' E 002°21'9 8.7
2014-Sep-30 13:33N 39°44' E 002°30'8 8.5
2014-Sep-30 12:33N 39°51' E 002°35'1111.3
2014-Sep-30 11:33N 39°60' E 002°45'1111.0
2014-Sep-30 10:33N 40°08' E 002°55'1111.4
2014-Sep-30 09:33N 40°17' E 003°05'1211.8
2014-Sep-30 08:33N 40°25' E 003°15'1212.1
2014-Sep-30 07:32N 40°34' E 003°26'1212.0
2014-Sep-30 06:33N 40°43' E 003°36'1512.4
2014-Sep-30 05:21N 40°54' E 003°49'12811.7
2014-Sep-29 18:26N 42°30' E 005°43'1011.0
2014-Sep-29 17:30N 42°38' E 005°52'1111.6
2014-Sep-29 16:33N 42°46' E 006°02'1211.8
2014-Sep-29 15:33N 42°55' E 006°13'1211.8
2014-Sep-29 14:31N 43°02' E 006°25'9 9.2
2014-Sep-29 13:33N 43°06' E 006°37'1211.9
2014-Sep-29 12:33N 43°11' E 006°51'1312.6
2014-Sep-29 11:32N 43°21' E 007°02'1312.9
2014-Sep-29 10:33N 43°31' E 007°13'1312.6
2014-Sep-29 09:33N 43°41' E 007°23'  
2014-Sep-23 12:30N 43°45' E 007°28'25 1.6
2014-Sep-22 20:22N 43°53' E 008°01'0 0.0
2014-Sep-22 18:31N 43°53' E 008°01'0 0.0
2014-Sep-22 17:22N 43°53' E 008°01'0 0.0
2014-Sep-22 16:31N 43°53' E 008°01'0 0.0
2014-Sep-22 15:31N 43°53' E 008°01'0 0.0
2014-Sep-22 12:31N 43°53' E 008°01'  

Dump ship's entire track history